Central Lake, Michigan
Current Conditions -  °F | °C
As of 10:58 PM on Saturday 25 Oct 2014 (Local Time) from KACB Reporting Station
Clear Clear  
Wind Chill: 53°   Ceiling: Unl
Heat Index: 53°   Visibility: 10mi
Dew Point: 33°   Wind: 8mph
Humidity: 46%   Direction: 300°WNW
Pressure: 29.81"   Gusts: 16mph
Location:  45.07°N, 85.26°W
Report Text: KACB 260258Z AUTO 30007G14KT 270V340 10SM CLR 12/00 A2981 RMK AO2 T01180004
Loading
Personal Weather Stations






























Interactive Weather Map
Tropical Storm Tracking
New forecast layout! Learn more

10-Day Weather Forecast

Advertisements
Track Severe Weather on mobile